createdAt,value
2023-04-24T00:00:49.750Z,11.50
2023-04-24T00:03:22.103Z,11.50
2023-04-24T00:05:50.869Z,11.50
2023-04-24T00:08:19.575Z,11.50
2023-04-24T00:10:48.457Z,11.50
2023-04-24T00:13:16.951Z,11.50
2023-04-24T00:15:45.473Z,11.50
2023-04-24T00:18:14.053Z,11.50
2023-04-24T00:20:44.745Z,11.50
2023-04-24T00:23:13.376Z,11.60
2023-04-24T00:25:43.847Z,11.50
2023-04-24T00:28:12.444Z,11.50
2023-04-24T00:30:41.829Z,11.50
2023-04-24T00:33:10.643Z,11.50
2023-04-24T00:35:39.585Z,11.50
2023-04-24T00:38:09.521Z,11.50
2023-04-24T00:40:38.199Z,11.50
2023-04-24T00:43:08.380Z,11.50
2023-04-24T00:45:38.604Z,11.50
2023-04-24T00:48:07.568Z,11.50
2023-04-24T00:50:38.302Z,11.50
2023-04-24T00:53:07.187Z,11.50
2023-04-24T00:55:39.235Z,11.60
2023-04-24T00:58:07.873Z,11.60
2023-04-24T01:00:37.852Z,11.60
2023-04-24T01:03:07.080Z,11.60
2023-04-24T01:05:36.293Z,11.60
2023-04-24T01:08:05.536Z,11.60
2023-04-24T01:10:38.537Z,11.60
2023-04-24T01:13:07.238Z,11.60
2023-04-24T01:15:36.156Z,11.60
2023-04-24T01:18:05.078Z,11.60
2023-04-24T01:20:34.609Z,11.60
2023-04-24T01:23:04.615Z,11.70
2023-04-24T01:25:33.319Z,11.80
2023-04-24T01:28:02.407Z,11.90
2023-04-24T01:30:32.075Z,11.90
2023-04-24T01:33:01.198Z,11.90
2023-04-24T01:35:30.022Z,11.80
2023-04-24T01:37:58.637Z,11.80
2023-04-24T01:40:28.652Z,11.80
2023-04-24T01:43:00.436Z,11.70
2023-04-24T01:45:29.167Z,11.70
2023-04-24T01:47:59.145Z,11.70
2023-04-24T01:50:27.775Z,11.70
2023-04-24T01:52:56.425Z,11.60
2023-04-24T01:55:24.992Z,11.60
2023-04-24T01:57:58.195Z,11.50
2023-04-24T02:00:26.859Z,11.50
2023-04-24T02:02:55.679Z,11.50
2023-04-24T02:05:24.477Z,11.40
2023-04-24T02:07:53.211Z,11.40
2023-04-24T02:10:22.004Z,11.30
2023-04-24T02:12:50.772Z,11.30
2023-04-24T02:15:21.180Z,11.30
2023-04-24T02:17:50.020Z,11.20
2023-04-24T02:20:18.718Z,11.20
2023-04-24T02:22:47.335Z,11.20
2023-04-24T02:25:15.870Z,11.10
2023-04-24T02:27:44.605Z,11.10
2023-04-24T02:30:13.648Z,11.10
2023-04-24T02:32:43.562Z,11.00
2023-04-24T02:35:13.397Z,11.00
2023-04-24T02:37:42.457Z,10.90
2023-04-24T02:40:14.546Z,10.80
2023-04-24T02:42:43.288Z,10.70
2023-04-24T02:45:12.710Z,10.70
2023-04-24T02:47:43.002Z,10.70
2023-04-24T02:50:11.927Z,10.60
2023-04-24T02:52:40.510Z,10.50
2023-04-24T02:55:09.951Z,10.50
2023-04-24T02:57:38.537Z,10.40
2023-04-24T03:00:10.620Z,10.40
2023-04-24T03:02:39.426Z,10.30
2023-04-24T03:05:10.328Z,10.30
2023-04-24T03:07:38.935Z,10.20
2023-04-24T03:10:09.800Z,10.20
2023-04-24T03:12:38.394Z,10.10
2023-04-24T03:15:08.028Z,10.10
2023-04-24T03:17:39.384Z,10.00
2023-04-24T03:20:11.045Z,10.00
2023-04-24T03:22:40.048Z,10.00
2023-04-24T03:25:11.171Z,10.00
2023-04-24T03:27:40.400Z,10.00
2023-04-24T03:30:37.948Z,10.00
2023-04-24T03:33:07.358Z,10.00
2023-04-24T03:35:40.869Z,9.90
2023-04-24T03:38:12.048Z,9.90
2023-04-24T03:40:57.943Z,9.80
2023-04-24T03:43:40.641Z,9.80
2023-04-24T03:46:10.699Z,9.70
2023-04-24T03:48:44.120Z,9.70
2023-04-24T03:51:14.530Z,9.70
2023-04-24T03:53:46.619Z,9.60
2023-04-24T03:56:19.071Z,9.60
2023-04-24T03:58:48.626Z,9.60
2023-04-24T04:01:17.907Z,9.50
2023-04-24T04:03:55.364Z,9.50
2023-04-24T04:06:28.428Z,9.50
2023-04-24T04:08:58.788Z,9.40
2023-04-24T04:11:27.747Z,9.40
2023-04-24T04:13:56.479Z,9.40
2023-04-24T04:16:25.464Z,9.40
2023-04-24T04:18:59.504Z,9.30
2023-04-24T04:21:29.482Z,9.30
2023-04-24T04:24:08.274Z,9.30
2023-04-24T04:26:41.630Z,9.30
2023-04-24T04:29:12.960Z,9.30
2023-04-24T04:31:45.330Z,9.30
2023-04-24T04:34:15.642Z,9.30
2023-04-24T04:36:47.338Z,9.30
2023-04-24T04:39:36.745Z,9.30
2023-04-24T04:42:08.662Z,9.30
2023-04-24T04:44:42.352Z,9.30
2023-04-24T04:47:14.840Z,9.30
2023-04-24T04:49:44.479Z,9.30
2023-04-24T04:52:26.167Z,9.40
2023-04-24T04:55:00.539Z,9.40
2023-04-24T04:57:42.936Z,9.40
2023-04-24T05:00:12.945Z,9.40
2023-04-24T05:02:49.230Z,9.40
2023-04-24T05:05:18.818Z,9.50
2023-04-24T05:07:49.304Z,9.40
2023-04-24T05:10:17.992Z,9.50
2023-04-24T05:12:46.943Z,9.60
2023-04-24T05:15:15.561Z,9.60
2023-04-24T05:17:44.380Z,9.60
2023-04-24T05:20:14.332Z,9.70
2023-04-24T05:22:42.918Z,9.70
2023-04-24T05:25:13.446Z,9.80
2023-04-24T05:27:56.617Z,9.80
2023-04-24T05:30:25.749Z,9.80
2023-04-24T05:32:54.332Z,9.80
2023-04-24T05:35:22.934Z,9.80
2023-04-24T05:37:51.555Z,9.80
2023-04-24T05:40:22.063Z,9.80
2023-04-24T05:42:50.679Z,9.70
2023-04-24T05:45:19.365Z,9.70
2023-04-24T05:47:48.263Z,9.70
2023-04-24T05:50:17.094Z,9.80
2023-04-24T05:52:45.678Z,9.80
2023-04-24T05:55:27.414Z,9.80
2023-04-24T05:57:56.342Z,9.90
2023-04-24T06:00:29.666Z,9.90
2023-04-24T06:03:05.531Z,9.90
2023-04-24T06:05:34.422Z,9.90
2023-04-24T06:08:05.011Z,10.00
2023-04-24T06:10:39.433Z,10.00
2023-04-24T06:13:10.135Z,10.00
2023-04-24T06:15:41.769Z,10.00
2023-04-24T06:18:13.745Z,10.00
2023-04-24T06:20:43.928Z,10.10
2023-04-24T06:23:12.462Z,10.10
2023-04-24T06:25:42.555Z,10.10
2023-04-24T06:28:14.487Z,10.10
2023-04-24T06:30:44.452Z,10.30
2023-04-24T06:35:47.851Z,10.30
2023-04-24T06:38:16.993Z,10.30
2023-04-24T06:40:47.770Z,10.40
2023-04-24T06:43:16.913Z,10.50
2023-04-24T06:45:46.339Z,10.50
2023-04-24T06:48:14.938Z,10.50
2023-04-24T06:50:43.425Z,10.50
2023-04-24T06:53:13.794Z,10.50
2023-04-24T06:55:44.129Z,10.50
2023-04-24T06:58:14.348Z,10.40
2023-04-24T07:00:43.300Z,10.40
2023-04-24T07:03:12.052Z,10.40
2023-04-24T07:05:41.104Z,10.40
2023-04-24T07:08:09.799Z,10.30
2023-04-24T07:10:38.422Z,10.30
2023-04-24T07:13:08.036Z,10.20
2023-04-24T07:15:38.249Z,10.20
2023-04-24T07:18:06.873Z,10.20
2023-04-24T07:20:35.614Z,10.20
2023-04-24T07:23:04.540Z,10.20
2023-04-24T07:25:33.638Z,10.10
2023-04-24T07:28:02.595Z,10.10
2023-04-24T07:30:31.277Z,10.10
2023-04-24T07:33:01.294Z,10.00
2023-04-24T07:35:30.011Z,10.00
2023-04-24T07:37:58.577Z,10.00
2023-04-24T07:40:27.123Z,10.00
2023-04-24T07:42:55.788Z,10.00
2023-04-24T07:45:27.099Z,10.00
2023-04-24T07:47:55.799Z,9.90
2023-04-24T07:50:25.736Z,9.90
2023-04-24T07:52:54.273Z,9.90
2023-04-24T07:55:24.656Z,9.90
2023-04-24T07:57:55.117Z,9.90
2023-04-24T08:00:23.774Z,9.90
2023-04-24T08:02:52.489Z,9.90
2023-04-24T08:05:21.472Z,9.90
2023-04-24T08:07:51.735Z,9.80
2023-04-24T08:10:20.234Z,9.80
2023-04-24T08:12:48.847Z,9.80
2023-04-24T08:15:17.696Z,9.80
2023-04-24T08:17:46.690Z,9.70
2023-04-24T08:20:15.489Z,9.60
2023-04-24T08:22:44.825Z,9.60
2023-04-24T08:25:14.992Z,9.60
2023-04-24T08:27:43.749Z,9.50
2023-04-24T08:30:12.959Z,9.50
2023-04-24T08:32:41.541Z,9.40
2023-04-24T08:35:11.191Z,9.40
2023-04-24T08:37:40.052Z,9.40
2023-04-24T08:40:16.354Z,9.30
2023-04-24T08:42:45.994Z,9.20
2023-04-24T08:45:15.331Z,9.10
2023-04-24T08:47:45.040Z,9.10
2023-04-24T08:50:13.808Z,9.00
2023-04-24T08:52:44.053Z,8.90
2023-04-24T08:55:12.846Z,8.80
2023-04-24T08:57:44.924Z,8.80
2023-04-24T09:00:14.534Z,8.80
2023-04-24T09:02:45.514Z,8.80
2023-04-24T09:05:16.301Z,8.70
2023-04-24T09:07:47.262Z,8.70
2023-04-24T09:10:16.478Z,8.70
2023-04-24T09:12:46.952Z,8.80
2023-04-24T09:15:15.974Z,8.80
2023-04-24T09:17:45.228Z,8.80
2023-04-24T09:20:14.123Z,8.80
2023-04-24T09:22:44.847Z,8.80
2023-04-24T09:25:13.803Z,8.80
2023-04-24T09:27:47.689Z,8.80
2023-04-24T09:30:22.859Z,8.80
2023-04-24T09:32:51.477Z,8.80
2023-04-24T09:35:20.070Z,8.80
2023-04-24T09:37:50.341Z,8.80
2023-04-24T09:40:21.010Z,8.80
2023-04-24T09:42:56.577Z,8.80
2023-04-24T09:45:29.935Z,8.80
2023-04-24T09:47:58.626Z,8.90
2023-04-24T09:50:27.121Z,8.80
2023-04-24T09:52:59.370Z,8.90
2023-04-24T09:55:28.508Z,8.90
2023-04-24T09:58:01.122Z,8.90
2023-04-24T10:00:31.700Z,9.00
2023-04-24T10:03:01.353Z,9.00
2023-04-24T10:05:32.190Z,9.00
2023-04-24T10:08:04.024Z,9.00
2023-04-24T10:10:33.523Z,9.00
2023-04-24T10:13:03.812Z,9.00
2023-04-24T10:15:32.849Z,9.10
2023-04-24T10:18:01.856Z,9.10
2023-04-24T10:20:32.563Z,9.10
2023-04-24T10:23:02.009Z,9.20
2023-04-24T10:25:32.277Z,9.20
2023-04-24T10:28:02.026Z,9.10
2023-04-24T10:30:36.173Z,9.20
2023-04-24T10:33:06.264Z,9.20
2023-04-24T10:35:36.968Z,9.20
2023-04-24T10:38:09.922Z,9.30
2023-04-24T10:40:39.123Z,9.30
2023-04-24T10:43:11.402Z,9.40
2023-04-24T10:45:41.670Z,9.40
2023-04-24T10:48:14.623Z,9.40
2023-04-24T10:50:47.870Z,9.40
2023-04-24T10:53:18.916Z,9.40
2023-04-24T10:55:49.881Z,9.30
2023-04-24T10:58:23.333Z,9.40
2023-04-24T11:01:00.050Z,9.40
2023-04-24T11:03:30.293Z,9.50
2023-04-24T11:06:01.395Z,9.50
2023-04-24T11:08:32.486Z,9.50
2023-04-24T11:11:03.609Z,9.50
2023-04-24T11:14:05.269Z,9.50
2023-04-24T11:16:41.632Z,9.70
2023-04-24T11:19:12.167Z,10.00
2023-04-24T11:21:45.521Z,10.30
2023-04-24T11:24:28.012Z,10.40
2023-04-24T11:26:57.680Z,10.50
2023-04-24T11:29:40.989Z,10.60
2023-04-24T11:32:31.702Z,10.50
2023-04-24T11:35:02.473Z,10.50
2023-04-24T11:37:35.806Z,10.50
2023-04-24T11:40:05.304Z,10.50
2023-04-24T11:42:36.785Z,10.70
2023-04-24T11:45:10.982Z,10.80
2023-04-24T11:47:41.632Z,10.90
2023-04-24T11:50:12.651Z,11.00
2023-04-24T11:52:43.294Z,10.90
2023-04-24T11:55:26.874Z,10.90
2023-04-24T11:57:58.174Z,10.80
2023-04-24T12:00:28.408Z,10.70
2023-04-24T12:03:08.394Z,10.70
2023-04-24T12:05:37.663Z,10.80
2023-04-24T12:08:07.382Z,10.70
2023-04-24T12:10:36.652Z,10.80
2023-04-24T12:13:05.402Z,10.80
2023-04-24T12:15:34.108Z,10.90
2023-04-24T12:18:02.777Z,11.00
2023-04-24T12:20:34.616Z,11.00
2023-04-24T12:23:03.531Z,11.00
2023-04-24T12:25:34.114Z,11.10
2023-04-24T12:28:12.952Z,11.10
2023-04-24T12:30:45.183Z,11.30
2023-04-24T12:33:13.782Z,11.50
2023-04-24T12:35:43.803Z,11.70
2023-04-24T12:38:14.721Z,11.90
2023-04-24T12:40:43.969Z,12.00
2023-04-24T12:43:17.486Z,12.00
2023-04-24T12:45:46.278Z,12.00
2023-04-24T12:48:16.025Z,11.90
2023-04-24T12:50:47.544Z,12.00
2023-04-24T12:53:16.749Z,12.20
2023-04-24T12:55:47.912Z,12.30
2023-04-24T12:58:16.585Z,12.50
2023-04-24T13:00:46.780Z,12.70
2023-04-24T13:03:16.324Z,12.70
2023-04-24T13:05:46.618Z,12.70
2023-04-24T13:08:15.467Z,12.60
2023-04-24T13:10:44.172Z,12.50
2023-04-24T13:13:12.762Z,12.40
2023-04-24T13:15:41.364Z,12.30
2023-04-24T13:18:10.030Z,12.20
2023-04-24T13:20:38.698Z,12.00
2023-04-24T13:23:08.795Z,12.00
2023-04-24T13:25:40.110Z,12.00
2023-04-24T13:28:08.814Z,12.10
2023-04-24T13:30:37.351Z,12.10
2023-04-24T13:33:06.176Z,12.20
2023-04-24T13:35:34.963Z,12.30
2023-04-24T13:38:06.952Z,12.40
2023-04-24T13:40:36.991Z,12.40
2023-04-24T13:43:05.675Z,12.60
2023-04-24T13:45:34.277Z,12.80
2023-04-24T13:48:04.071Z,13.00
2023-04-24T13:50:32.723Z,13.20
2023-04-24T13:53:02.997Z,13.30
2023-04-24T13:55:31.899Z,13.50
2023-04-24T13:58:02.352Z,13.60
2023-04-24T14:00:32.005Z,13.70
2023-04-24T14:03:00.723Z,13.70
2023-04-24T14:05:29.712Z,13.70
2023-04-24T14:07:58.317Z,13.60
2023-04-24T14:10:28.186Z,13.50
2023-04-24T14:12:56.928Z,13.30
2023-04-24T14:15:26.887Z,13.20
2023-04-24T14:17:55.719Z,13.10
2023-04-24T14:20:25.104Z,12.90
2023-04-24T14:22:54.395Z,12.90
2023-04-24T14:25:23.739Z,12.90
2023-04-24T14:27:52.452Z,13.00
2023-04-24T14:30:21.387Z,13.00
2023-04-24T14:32:51.324Z,12.80
2023-04-24T14:35:19.993Z,12.80
2023-04-24T14:37:49.469Z,12.70
2023-04-24T14:40:39.640Z,12.60
2023-04-24T14:43:06.864Z,12.50
2023-04-24T14:45:36.733Z,12.60
2023-04-24T14:48:06.755Z,12.70
2023-04-24T14:50:35.407Z,12.80
2023-04-24T14:53:04.066Z,13.00
2023-04-24T14:55:37.168Z,13.10
2023-04-24T14:58:06.148Z,13.20
2023-04-24T15:00:34.923Z,13.30
2023-04-24T15:03:03.958Z,13.40
2023-04-24T15:05:34.219Z,13.30
2023-04-24T15:08:03.242Z,13.50
2023-04-24T15:10:31.825Z,13.50
2023-04-24T15:13:00.504Z,13.60
2023-04-24T15:15:29.124Z,13.60
2023-04-24T15:17:57.708Z,13.70
2023-04-24T15:20:26.530Z,13.70
2023-04-24T15:22:56.605Z,13.90
2023-04-24T15:25:25.334Z,13.90
2023-04-24T15:27:53.901Z,14.00
2023-04-24T15:30:22.512Z,14.00
2023-04-24T15:32:51.173Z,14.10
2023-04-24T15:35:20.047Z,14.10
2023-04-24T15:37:48.691Z,14.20
2023-04-24T15:40:18.619Z,14.10
2023-04-24T15:42:47.424Z,14.10
2023-04-24T15:45:16.071Z,14.00
2023-04-24T15:47:47.075Z,13.90
2023-04-24T15:50:16.912Z,13.90
2023-04-24T15:52:45.895Z,13.80
2023-04-24T15:55:14.672Z,13.80
2023-04-24T15:57:44.883Z,13.70
2023-04-24T16:00:14.651Z,13.60
2023-04-24T16:02:43.380Z,13.50
2023-04-24T16:05:12.757Z,13.30
2023-04-24T16:07:41.396Z,13.30
2023-04-24T16:10:10.839Z,13.30
2023-04-24T16:12:39.498Z,13.40
2023-04-24T16:15:10.779Z,13.30
2023-04-24T16:17:39.352Z,13.30
2023-04-24T16:20:08.947Z,13.40
2023-04-24T16:22:37.480Z,13.30
2023-04-24T16:25:06.842Z,13.30
2023-04-24T16:27:37.525Z,13.30
2023-04-24T16:30:07.645Z,13.20
2023-04-24T16:32:37.828Z,13.20
2023-04-24T16:35:07.082Z,13.20
2023-04-24T16:37:35.900Z,13.10
2023-04-24T16:40:10.373Z,13.00
2023-04-24T16:42:39.498Z,13.00
2023-04-24T16:45:09.538Z,12.90
2023-04-24T16:47:39.503Z,12.90
2023-04-24T16:50:09.217Z,12.90
2023-04-24T16:52:38.091Z,12.90
2023-04-24T16:55:07.707Z,12.80
2023-04-24T16:57:36.312Z,12.80
2023-04-24T17:00:05.751Z,12.80
2023-04-24T17:02:34.479Z,12.80
2023-04-24T17:05:04.862Z,12.70
2023-04-24T17:07:33.625Z,12.70
2023-04-24T17:10:02.232Z,12.60
2023-04-24T17:12:30.846Z,12.60
2023-04-24T17:14:59.419Z,12.50
2023-04-24T17:17:28.382Z,12.40
2023-04-24T17:19:56.946Z,12.50
2023-04-24T17:22:27.197Z,12.40
2023-04-24T17:24:56.168Z,12.40
2023-04-24T17:27:25.139Z,12.40
2023-04-24T17:29:54.075Z,12.30
2023-04-24T17:32:22.717Z,12.20
2023-04-24T17:34:51.409Z,12.20
2023-04-24T17:37:23.143Z,12.10
2023-04-24T17:39:53.199Z,12.10
2023-04-24T17:42:21.820Z,12.00
2023-04-24T17:44:50.459Z,12.00
2023-04-24T17:47:20.129Z,12.00
2023-04-24T17:49:48.825Z,11.90
2023-04-24T17:52:17.646Z,11.90
2023-04-24T17:54:46.519Z,11.80
2023-04-24T17:57:16.547Z,11.80
2023-04-24T17:59:45.229Z,11.70
2023-04-24T18:02:14.222Z,11.70
2023-04-24T18:04:43.101Z,11.70
2023-04-24T18:07:12.153Z,11.70
2023-04-24T18:09:41.429Z,11.60
2023-04-24T18:12:10.567Z,11.60
2023-04-24T18:14:40.685Z,11.60
2023-04-24T18:17:09.249Z,11.50
2023-04-24T18:19:38.217Z,11.50
2023-04-24T18:22:06.801Z,11.50
2023-04-24T18:24:35.526Z,11.40
2023-04-24T18:27:04.181Z,11.40
2023-04-24T18:29:32.829Z,11.40
2023-04-24T18:32:04.824Z,11.30
2023-04-24T18:34:33.433Z,11.30
2023-04-24T18:37:02.084Z,11.30
2023-04-24T18:39:30.821Z,11.30
2023-04-24T18:42:00.067Z,11.20
2023-04-24T18:44:28.773Z,11.20
2023-04-24T18:46:57.269Z,11.20
2023-04-24T18:49:27.542Z,11.20
2023-04-24T18:51:56.250Z,11.20
2023-04-24T18:54:24.843Z,11.20
2023-04-24T18:56:53.372Z,11.20
2023-04-24T18:59:22.248Z,11.10
2023-04-24T19:01:50.873Z,11.10
2023-04-24T19:04:20.877Z,11.10
2023-04-24T19:06:50.879Z,11.10
2023-04-24T19:09:19.620Z,11.10
2023-04-24T19:11:48.262Z,11.20
2023-04-24T19:14:17.236Z,11.20
2023-04-24T19:16:45.899Z,11.20
2023-04-24T19:19:14.615Z,11.20
2023-04-24T19:24:38.049Z,11.20
2023-04-24T19:27:07.059Z,11.20
2023-04-24T19:29:35.904Z,11.10
2023-04-24T19:32:05.055Z,11.10
2023-04-24T19:34:34.545Z,11.10
2023-04-24T19:37:03.313Z,11.00
2023-04-24T19:39:32.647Z,11.00
2023-04-24T19:42:05.851Z,11.00
2023-04-24T19:44:36.088Z,10.90
2023-04-24T19:47:05.060Z,10.90
2023-04-24T19:49:33.617Z,10.90
2023-04-24T19:52:11.410Z,10.90
2023-04-24T19:54:40.144Z,10.90
2023-04-24T19:57:09.998Z,10.90
2023-04-24T19:59:38.564Z,10.90
2023-04-24T20:02:07.155Z,10.90
2023-04-24T20:04:35.959Z,10.90
2023-04-24T20:07:04.852Z,10.90
2023-04-24T20:09:37.934Z,10.90
2023-04-24T20:12:07.197Z,10.90
2023-04-24T20:14:46.042Z,10.80
2023-04-24T20:17:14.721Z,10.70
2023-04-24T20:19:43.319Z,10.70
2023-04-24T20:22:13.375Z,10.60
2023-04-24T20:24:42.476Z,10.60
2023-04-24T20:27:12.411Z,10.50
2023-04-24T20:29:42.464Z,10.50
2023-04-24T20:32:11.200Z,10.50
2023-04-24T20:34:39.731Z,10.40
2023-04-24T20:37:08.369Z,10.40
2023-04-24T20:39:38.795Z,10.40
2023-04-24T20:42:07.658Z,10.30
2023-04-24T20:44:36.284Z,10.30
2023-04-24T20:47:07.035Z,10.30
2023-04-24T20:49:35.546Z,10.30
2023-04-24T20:52:04.301Z,10.20
2023-04-24T20:54:32.910Z,10.20
2023-04-24T20:57:01.803Z,10.20
2023-04-24T20:59:30.460Z,10.10
2023-04-24T21:01:59.102Z,10.10
2023-04-24T21:04:29.046Z,10.10
2023-04-24T21:06:57.584Z,10.00
2023-04-24T21:09:26.199Z,10.00
2023-04-24T21:11:54.848Z,10.00
2023-04-24T21:14:23.393Z,10.00
2023-04-24T21:16:52.159Z,10.00
2023-04-24T21:19:20.894Z,9.90
2023-04-24T21:21:50.789Z,9.90
2023-04-24T21:24:19.403Z,9.90
2023-04-24T21:26:48.097Z,9.90
2023-04-24T21:29:16.733Z,9.90
2023-04-24T21:31:45.353Z,9.80
2023-04-24T21:34:14.590Z,9.80
2023-04-24T21:36:43.228Z,9.70
2023-04-24T21:39:16.671Z,9.70
2023-04-24T21:41:45.546Z,9.60
2023-04-24T21:44:14.164Z,9.60
2023-04-24T21:46:43.028Z,9.50
2023-04-24T21:49:12.071Z,9.50
2023-04-24T21:51:41.217Z,9.40
2023-04-24T21:54:09.758Z,9.40
2023-04-24T21:56:41.403Z,9.40
2023-04-24T21:59:10.397Z,9.30
2023-04-24T22:01:38.963Z,9.30
2023-04-24T22:04:07.802Z,9.20
2023-04-24T22:06:37.927Z,9.20
2023-04-24T22:09:07.597Z,9.10
2023-04-24T22:11:36.636Z,9.10
2023-04-24T22:14:07.205Z,9.10
2023-04-24T22:16:35.787Z,9.10
2023-04-24T22:19:05.003Z,9.00
2023-04-24T22:21:33.798Z,9.00
2023-04-24T22:24:02.445Z,9.00
2023-04-24T22:26:31.082Z,8.90
2023-04-24T22:28:59.583Z,8.90
2023-04-24T22:31:29.724Z,8.90
2023-04-24T22:33:58.325Z,8.90
2023-04-24T22:36:28.541Z,8.90
2023-04-24T22:38:57.147Z,8.80
2023-04-24T22:41:25.954Z,8.80
2023-04-24T22:43:55.792Z,8.80
2023-04-24T22:46:25.871Z,8.80
2023-04-24T22:48:58.460Z,8.80
2023-04-24T22:51:27.152Z,8.80
2023-04-24T22:53:56.624Z,8.70
2023-04-24T22:56:25.185Z,8.70
2023-04-24T22:58:53.817Z,8.70
2023-04-24T23:01:22.520Z,8.70
2023-04-24T23:03:51.895Z,8.70
2023-04-24T23:06:22.121Z,8.70
2023-04-24T23:08:50.765Z,8.60
2023-04-24T23:11:20.036Z,8.60
2023-04-24T23:13:49.210Z,8.60
2023-04-24T23:16:17.947Z,8.70
2023-04-24T23:18:46.523Z,8.70
2023-04-24T23:21:15.426Z,8.70
2023-04-24T23:23:45.375Z,8.70
2023-04-24T23:26:13.967Z,8.60
2023-04-24T23:28:42.525Z,8.60
2023-04-24T23:31:11.067Z,8.60
2023-04-24T23:33:39.622Z,8.60
2023-04-24T23:36:08.379Z,8.60
2023-04-24T23:38:49.111Z,8.60
2023-04-24T23:41:21.049Z,8.60
2023-04-24T23:43:50.340Z,8.60
2023-04-24T23:46:19.313Z,8.60
2023-04-24T23:48:47.929Z,8.60
2023-04-24T23:51:16.701Z,8.60
2023-04-24T23:53:45.441Z,8.60
2023-04-24T23:56:14.085Z,8.60
2023-04-24T23:58:44.027Z,8.60
